sensor_id;sensor_type;location;lat;lon;timestamp;P1;durP1;ratioP1;P2;durP2;ratioP2
73168;SDS011;61379;59.732;30.468;2024-03-22T00:01:15;11.18;;;10.07;;
73168;SDS011;61379;59.732;30.468;2024-03-22T00:03:42;11.43;;;10.23;;
73168;SDS011;61379;59.732;30.468;2024-03-22T00:06:09;12.38;;;10.35;;
73168;SDS011;61379;59.732;30.468;2024-03-22T00:08:35;12.75;;;10.35;;
73168;SDS011;61379;59.732;30.468;2024-03-22T00:11:01;8.38;;;7.53;;
73168;SDS011;61379;59.732;30.468;2024-03-22T00:13:27;12.00;;;9.52;;
73168;SDS011;61379;59.732;30.468;2024-03-22T00:15:54;12.43;;;10.00;;
73168;SDS011;61379;59.732;30.468;2024-03-22T00:18:20;11.30;;;9.00;;
73168;SDS011;61379;59.732;30.468;2024-03-22T00:20:48;9.90;;;7.95;;
73168;SDS011;61379;59.732;30.468;2024-03-22T00:23:14;11.73;;;10.63;;
73168;SDS011;61379;59.732;30.468;2024-03-22T00:25:41;13.02;;;10.73;;
73168;SDS011;61379;59.732;30.468;2024-03-22T00:28:06;14.05;;;10.55;;
73168;SDS011;61379;59.732;30.468;2024-03-22T00:30:33;13.55;;;10.65;;
73168;SDS011;61379;59.732;30.468;2024-03-22T00:32:59;11.13;;;10.00;;
73168;SDS011;61379;59.732;30.468;2024-03-22T00:35:26;12.75;;;11.43;;
73168;SDS011;61379;59.732;30.468;2024-03-22T00:37:54;12.55;;;9.32;;
73168;SDS011;61379;59.732;30.468;2024-03-22T00:40:20;11.05;;;9.93;;
73168;SDS011;61379;59.732;30.468;2024-03-22T00:42:47;11.13;;;9.88;;
73168;SDS011;61379;59.732;30.468;2024-03-22T00:45:13;16.55;;;10.77;;
73168;SDS011;61379;59.732;30.468;2024-03-22T00:47:40;10.38;;;9.43;;
73168;SDS011;61379;59.732;30.468;2024-03-22T00:50:06;9.63;;;8.68;;
73168;SDS011;61379;59.732;30.468;2024-03-22T00:52:33;14.20;;;10.45;;
73168;SDS011;61379;59.732;30.468;2024-03-22T00:55:00;12.32;;;11.07;;
73168;SDS011;61379;59.732;30.468;2024-03-22T00:57:27;11.18;;;10.07;;
73168;SDS011;61379;59.732;30.468;2024-03-22T00:59:53;11.02;;;9.88;;
73168;SDS011;61379;59.732;30.468;2024-03-22T01:02:19;11.40;;;10.23;;
73168;SDS011;61379;59.732;30.468;2024-03-22T01:04:45;11.32;;;10.13;;
73168;SDS011;61379;59.732;30.468;2024-03-22T01:07:12;12.38;;;10.38;;
73168;SDS011;61379;59.732;30.468;2024-03-22T01:09:38;11.70;;;10.48;;
73168;SDS011;61379;59.732;30.468;2024-03-22T01:12:06;11.55;;;9.80;;
73168;SDS011;61379;59.732;30.468;2024-03-22T01:14:32;13.10;;;11.07;;
73168;SDS011;61379;59.732;30.468;2024-03-22T01:16:59;15.43;;;10.07;;
73168;SDS011;61379;59.732;30.468;2024-03-22T01:19:25;11.55;;;9.70;;
73168;SDS011;61379;59.732;30.468;2024-03-22T01:21:51;11.52;;;10.40;;
73168;SDS011;61379;59.732;30.468;2024-03-22T01:24:17;11.57;;;10.07;;
73168;SDS011;61379;59.732;30.468;2024-03-22T01:26:44;11.18;;;10.07;;
73168;SDS011;61379;59.732;30.468;2024-03-22T01:29:11;12.30;;;9.10;;
73168;SDS011;61379;59.732;30.468;2024-03-22T01:31:38;14.30;;;10.05;;
73168;SDS011;61379;59.732;30.468;2024-03-22T01:34:04;11.50;;;10.43;;
73168;SDS011;61379;59.732;30.468;2024-03-22T01:36:30;11.48;;;9.75;;
73168;SDS011;61379;59.732;30.468;2024-03-22T01:38:57;12.27;;;10.98;;
73168;SDS011;61379;59.732;30.468;2024-03-22T01:41:23;18.67;;;10.30;;
73168;SDS011;61379;59.732;30.468;2024-03-22T01:43:49;15.85;;;10.75;;
73168;SDS011;61379;59.732;30.468;2024-03-22T01:46:17;11.75;;;8.77;;
73168;SDS011;61379;59.732;30.468;2024-03-22T01:48:43;11.93;;;10.43;;
73168;SDS011;61379;59.732;30.468;2024-03-22T01:51:10;11.80;;;10.60;;
73168;SDS011;61379;59.732;30.468;2024-03-22T01:53:36;15.50;;;10.95;;
73168;SDS011;61379;59.732;30.468;2024-03-22T01:56:04;15.52;;;12.25;;
73168;SDS011;61379;59.732;30.468;2024-03-22T01:58:31;14.65;;;10.32;;
73168;SDS011;61379;59.732;30.468;2024-03-22T02:00:57;12.13;;;10.75;;
73168;SDS011;61379;59.732;30.468;2024-03-22T02:03:25;11.40;;;10.23;;
73168;SDS011;61379;59.732;30.468;2024-03-22T02:05:52;17.20;;;10.32;;
73168;SDS011;61379;59.732;30.468;2024-03-22T02:08:17;12.60;;;10.05;;
73168;SDS011;61379;59.732;30.468;2024-03-22T02:10:44;12.60;;;10.60;;
73168;SDS011;61379;59.732;30.468;2024-03-22T02:13:10;13.07;;;11.40;;
73168;SDS011;61379;59.732;30.468;2024-03-22T02:15:37;11.80;;;10.50;;
73168;SDS011;61379;59.732;30.468;2024-03-22T02:18:24;11.68;;;10.32;;
73168;SDS011;61379;59.732;30.468;2024-03-22T02:20:51;15.38;;;10.05;;
73168;SDS011;61379;59.732;30.468;2024-03-22T02:23:17;12.73;;;10.35;;
73168;SDS011;61379;59.732;30.468;2024-03-22T02:25:45;11.70;;;10.32;;
73168;SDS011;61379;59.732;30.468;2024-03-22T02:28:11;12.57;;;10.38;;
73168;SDS011;61379;59.732;30.468;2024-03-22T02:30:38;17.98;;;11.27;;
73168;SDS011;61379;59.732;30.468;2024-03-22T02:33:04;12.38;;;11.07;;
73168;SDS011;61379;59.732;30.468;2024-03-22T02:35:30;11.57;;;10.57;;
73168;SDS011;61379;59.732;30.468;2024-03-22T02:37:57;12.70;;;11.25;;
73168;SDS011;61379;59.732;30.468;2024-03-22T02:40:24;12.05;;;10.05;;
73168;SDS011;61379;59.732;30.468;2024-03-22T02:42:52;12.63;;;10.63;;
73168;SDS011;61379;59.732;30.468;2024-03-22T02:45:18;10.77;;;9.68;;
73168;SDS011;61379;59.732;30.468;2024-03-22T02:47:45;15.18;;;10.20;;
73168;SDS011;61379;59.732;30.468;2024-03-22T02:50:11;11.35;;;10.10;;
73168;SDS011;61379;59.732;30.468;2024-03-22T02:52:37;11.80;;;8.85;;
73168;SDS011;61379;59.732;30.468;2024-03-22T02:55:03;12.70;;;11.15;;
73168;SDS011;61379;59.732;30.468;2024-03-22T02:57:30;14.20;;;10.95;;
73168;SDS011;61379;59.732;30.468;2024-03-22T02:59:58;11.73;;;10.63;;
73168;SDS011;61379;59.732;30.468;2024-03-22T03:02:26;9.90;;;9.00;;
73168;SDS011;61379;59.732;30.468;2024-03-22T03:04:52;11.13;;;10.00;;
73168;SDS011;61379;59.732;30.468;2024-03-22T03:07:18;10.07;;;9.00;;
73168;SDS011;61379;59.732;30.468;2024-03-22T03:09:44;11.07;;;9.95;;
73168;SDS011;61379;59.732;30.468;2024-03-22T03:12:11;10.95;;;9.65;;
73168;SDS011;61379;59.732;30.468;2024-03-22T03:14:37;11.45;;;10.35;;
73168;SDS011;61379;59.732;30.468;2024-03-22T03:17:05;12.18;;;10.63;;
73168;SDS011;61379;59.732;30.468;2024-03-22T03:19:31;9.85;;;8.95;;
73168;SDS011;61379;59.732;30.468;2024-03-22T03:21:58;11.25;;;10.15;;
73168;SDS011;61379;59.732;30.468;2024-03-22T03:24:23;13.98;;;11.23;;
73168;SDS011;61379;59.732;30.468;2024-03-22T03:26:50;11.00;;;9.98;;
73168;SDS011;61379;59.732;30.468;2024-03-22T03:29:16;13.75;;;9.55;;
73168;SDS011;61379;59.732;30.468;2024-03-22T03:31:43;11.57;;;10.35;;
73168;SDS011;61379;59.732;30.468;2024-03-22T03:34:10;11.70;;;10.50;;
73168;SDS011;61379;59.732;30.468;2024-03-22T03:36:37;11.90;;;9.77;;
73168;SDS011;61379;59.732;30.468;2024-03-22T03:39:03;13.98;;;11.25;;
73168;SDS011;61379;59.732;30.468;2024-03-22T03:41:30;11.13;;;10.23;;
73168;SDS011;61379;59.732;30.468;2024-03-22T03:43:55;10.93;;;9.85;;
73168;SDS011;61379;59.732;30.468;2024-03-22T03:46:22;12.38;;;11.18;;
73168;SDS011;61379;59.732;30.468;2024-03-22T03:48:48;12.63;;;11.32;;
73168;SDS011;61379;59.732;30.468;2024-03-22T03:51:16;10.73;;;9.25;;
73168;SDS011;61379;59.732;30.468;2024-03-22T03:53:42;11.70;;;10.60;;
73168;SDS011;61379;59.732;30.468;2024-03-22T03:56:09;11.73;;;10.68;;
73168;SDS011;61379;59.732;30.468;2024-03-22T03:58:35;11.75;;;10.65;;
73168;SDS011;61379;59.732;30.468;2024-03-22T04:01:04;12.88;;;9.80;;
73168;SDS011;61379;59.732;30.468;2024-03-22T04:03:30;11.27;;;10.15;;
73168;SDS011;61379;59.732;30.468;2024-03-22T04:05:57;13.70;;;12.25;;
73168;SDS011;61379;59.732;30.468;2024-03-22T04:08:25;11.82;;;10.70;;
73168;SDS011;61379;59.732;30.468;2024-03-22T04:10:52;11.57;;;10.30;;
73168;SDS011;61379;59.732;30.468;2024-03-22T04:13:18;14.00;;;9.40;;
73168;SDS011;61379;59.732;30.468;2024-03-22T04:15:45;11.55;;;10.35;;
73168;SDS011;61379;59.732;30.468;2024-03-22T04:18:11;12.43;;;10.73;;
73168;SDS011;61379;59.732;30.468;2024-03-22T04:20:37;11.95;;;10.57;;
73168;SDS011;61379;59.732;30.468;2024-03-22T04:23:03;10.88;;;9.75;;
73168;SDS011;61379;59.732;30.468;2024-03-22T04:25:31;11.38;;;10.30;;
73168;SDS011;61379;59.732;30.468;2024-03-22T04:27:57;11.93;;;9.73;;
73168;SDS011;61379;59.732;30.468;2024-03-22T04:30:24;11.57;;;8.90;;
73168;SDS011;61379;59.732;30.468;2024-03-22T04:32:50;11.80;;;10.25;;
73168;SDS011;61379;59.732;30.468;2024-03-22T04:35:17;11.23;;;9.35;;
73168;SDS011;61379;59.732;30.468;2024-03-22T04:37:43;12.27;;;8.52;;
73168;SDS011;61379;59.732;30.468;2024-03-22T04:40:10;9.75;;;8.88;;
73168;SDS011;61379;59.732;30.468;2024-03-22T04:42:38;12.73;;;10.38;;
73168;SDS011;61379;59.732;30.468;2024-03-22T04:45:05;16.00;;;11.43;;
73168;SDS011;61379;59.732;30.468;2024-03-22T04:47:32;9.82;;;8.90;;
73168;SDS011;61379;59.732;30.468;2024-03-22T04:49:58;14.98;;;11.80;;
73168;SDS011;61379;59.732;30.468;2024-03-22T04:52:25;14.02;;;11.40;;
73168;SDS011;61379;59.732;30.468;2024-03-22T04:54:50;15.73;;;11.40;;
73168;SDS011;61379;59.732;30.468;2024-03-22T04:57:17;16.45;;;11.40;;
73168;SDS011;61379;59.732;30.468;2024-03-22T04:59:44;14.75;;;11.38;;
73168;SDS011;61379;59.732;30.468;2024-03-22T05:02:11;17.17;;;11.10;;
73168;SDS011;61379;59.732;30.468;2024-03-22T05:04:38;18.15;;;12.60;;
73168;SDS011;61379;59.732;30.468;2024-03-22T05:07:04;16.10;;;13.35;;
73168;SDS011;61379;59.732;30.468;2024-03-22T05:09:31;14.82;;;12.38;;
73168;SDS011;61379;59.732;30.468;2024-03-22T05:11:57;17.20;;;11.43;;
73168;SDS011;61379;59.732;30.468;2024-03-22T05:14:24;16.13;;;12.70;;
73168;SDS011;61379;59.732;30.468;2024-03-22T05:16:51;17.83;;;12.90;;
73168;SDS011;61379;59.732;30.468;2024-03-22T05:19:18;21.13;;;13.13;;
73168;SDS011;61379;59.732;30.468;2024-03-22T05:21:44;23.15;;;13.07;;
73168;SDS011;61379;59.732;30.468;2024-03-22T05:24:10;15.20;;;12.25;;
73168;SDS011;61379;59.732;30.468;2024-03-22T05:26:36;16.77;;;13.23;;
73168;SDS011;61379;59.732;30.468;2024-03-22T05:29:03;18.20;;;11.75;;
73168;SDS011;61379;59.732;30.468;2024-03-22T05:31:29;15.48;;;11.43;;
73168;SDS011;61379;59.732;30.468;2024-03-22T05:33:58;19.75;;;11.60;;
73168;SDS011;61379;59.732;30.468;2024-03-22T05:36:24;17.67;;;14.07;;
73168;SDS011;61379;59.732;30.468;2024-03-22T05:38:51;17.50;;;12.68;;
73168;SDS011;61379;59.732;30.468;2024-03-22T05:41:16;18.20;;;11.25;;
73168;SDS011;61379;59.732;30.468;2024-03-22T05:43:43;18.80;;;12.63;;
73168;SDS011;61379;59.732;30.468;2024-03-22T05:46:09;15.32;;;13.13;;
73168;SDS011;61379;59.732;30.468;2024-03-22T05:48:36;19.30;;;13.35;;
73168;SDS011;61379;59.732;30.468;2024-03-22T05:51:04;18.48;;;12.95;;
73168;SDS011;61379;59.732;30.468;2024-03-22T05:53:30;15.23;;;11.23;;
73168;SDS011;61379;59.732;30.468;2024-03-22T05:55:56;17.83;;;12.70;;
73168;SDS011;61379;59.732;30.468;2024-03-22T05:58:23;20.60;;;13.43;;
73168;SDS011;61379;59.732;30.468;2024-03-22T06:00:49;18.35;;;10.65;;
73168;SDS011;61379;59.732;30.468;2024-03-22T06:03:16;17.17;;;12.63;;
73168;SDS011;61379;59.732;30.468;2024-03-22T06:05:41;17.00;;;13.27;;
73168;SDS011;61379;59.732;30.468;2024-03-22T06:08:10;19.90;;;13.40;;
73168;SDS011;61379;59.732;30.468;2024-03-22T06:10:35;18.23;;;13.13;;
73168;SDS011;61379;59.732;30.468;2024-03-22T06:13:02;17.08;;;13.15;;
73168;SDS011;61379;59.732;30.468;2024-03-22T06:15:28;14.82;;;11.98;;
73168;SDS011;61379;59.732;30.468;2024-03-22T06:17:55;19.08;;;13.80;;
73168;SDS011;61379;59.732;30.468;2024-03-22T06:20:21;14.68;;;12.32;;
73168;SDS011;61379;59.732;30.468;2024-03-22T06:22:48;22.58;;;12.27;;
73168;SDS011;61379;59.732;30.468;2024-03-22T06:25:15;15.43;;;12.27;;
73168;SDS011;61379;59.732;30.468;2024-03-22T06:27:42;16.67;;;12.98;;
73168;SDS011;61379;59.732;30.468;2024-03-22T06:30:08;15.75;;;11.85;;
73168;SDS011;61379;59.732;30.468;2024-03-22T06:32:34;15.00;;;11.88;;
73168;SDS011;61379;59.732;30.468;2024-03-22T06:35:00;17.45;;;10.88;;
73168;SDS011;61379;59.732;30.468;2024-03-22T06:37:28;14.80;;;9.23;;
73168;SDS011;61379;59.732;30.468;2024-03-22T06:39:54;16.67;;;11.60;;
73168;SDS011;61379;59.732;30.468;2024-03-22T06:42:22;14.73;;;12.50;;
73168;SDS011;61379;59.732;30.468;2024-03-22T06:44:48;15.55;;;12.35;;
73168;SDS011;61379;59.732;30.468;2024-03-22T06:47:15;14.50;;;11.63;;
73168;SDS011;61379;59.732;30.468;2024-03-22T06:49:42;10.50;;;9.48;;
73168;SDS011;61379;59.732;30.468;2024-03-22T06:52:08;14.20;;;10.40;;
73168;SDS011;61379;59.732;30.468;2024-03-22T06:54:34;15.50;;;11.90;;
73168;SDS011;61379;59.732;30.468;2024-03-22T06:57:01;13.15;;;11.63;;
73168;SDS011;61379;59.732;30.468;2024-03-22T06:59:28;14.65;;;10.93;;
73168;SDS011;61379;59.732;30.468;2024-03-22T07:01:55;17.02;;;10.25;;
73168;SDS011;61379;59.732;30.468;2024-03-22T07:04:21;13.63;;;11.15;;
73168;SDS011;61379;59.732;30.468;2024-03-22T07:06:47;13.55;;;10.98;;
73168;SDS011;61379;59.732;30.468;2024-03-22T07:09:13;14.05;;;10.50;;
73168;SDS011;61379;59.732;30.468;2024-03-22T07:11:40;17.83;;;11.70;;
73168;SDS011;61379;59.732;30.468;2024-03-22T07:14:06;16.17;;;12.52;;
73168;SDS011;61379;59.732;30.468;2024-03-22T07:16:34;15.70;;;11.25;;
73168;SDS011;61379;59.732;30.468;2024-03-22T07:19:02;11.88;;;10.35;;
73168;SDS011;61379;59.732;30.468;2024-03-22T07:21:29;19.58;;;12.57;;
73168;SDS011;61379;59.732;30.468;2024-03-22T07:23:55;13.65;;;10.20;;
73168;SDS011;61379;59.732;30.468;2024-03-22T07:26:22;14.00;;;9.43;;
73168;SDS011;61379;59.732;30.468;2024-03-22T07:28:47;14.18;;;11.30;;
73168;SDS011;61379;59.732;30.468;2024-03-22T07:31:14;17.33;;;12.32;;
73168;SDS011;61379;59.732;30.468;2024-03-22T07:33:41;15.98;;;10.75;;
73168;SDS011;61379;59.732;30.468;2024-03-22T07:36:08;10.32;;;9.05;;
73168;SDS011;61379;59.732;30.468;2024-03-22T07:38:34;15.88;;;12.27;;
73168;SDS011;61379;59.732;30.468;2024-03-22T07:41:01;18.42;;;12.13;;
73168;SDS011;61379;59.732;30.468;2024-03-22T07:43:27;18.25;;;11.68;;
73168;SDS011;61379;59.732;30.468;2024-03-22T07:45:54;18.05;;;11.82;;
73168;SDS011;61379;59.732;30.468;2024-03-22T07:48:19;21.50;;;13.57;;
73168;SDS011;61379;59.732;30.468;2024-03-22T07:50:55;17.88;;;13.02;;
73168;SDS011;61379;59.732;30.468;2024-03-22T07:53:21;19.35;;;13.27;;
73168;SDS011;61379;59.732;30.468;2024-03-22T07:55:47;20.25;;;12.63;;
73168;SDS011;61379;59.732;30.468;2024-03-22T07:58:13;17.77;;;12.77;;
73168;SDS011;61379;59.732;30.468;2024-03-22T08:00:40;22.65;;;12.38;;
73168;SDS011;61379;59.732;30.468;2024-03-22T08:03:06;19.45;;;13.20;;
73168;SDS011;61379;59.732;30.468;2024-03-22T08:05:33;21.08;;;13.57;;
73168;SDS011;61379;59.732;30.468;2024-03-22T08:08:00;20.58;;;14.18;;
73168;SDS011;61379;59.732;30.468;2024-03-22T08:10:27;19.35;;;12.77;;
73168;SDS011;61379;59.732;30.468;2024-03-22T08:12:53;15.27;;;11.93;;
73168;SDS011;61379;59.732;30.468;2024-03-22T08:15:21;16.77;;;10.32;;
73168;SDS011;61379;59.732;30.468;2024-03-22T08:17:47;14.95;;;12.20;;
73168;SDS011;61379;59.732;30.468;2024-03-22T08:20:13;16.55;;;10.98;;
73168;SDS011;61379;59.732;30.468;2024-03-22T08:22:39;14.82;;;11.25;;
73168;SDS011;61379;59.732;30.468;2024-03-22T08:25:08;16.92;;;12.50;;
73168;SDS011;61379;59.732;30.468;2024-03-22T08:27:33;15.40;;;10.68;;
73168;SDS011;61379;59.732;30.468;2024-03-22T08:30:00;19.13;;;13.02;;
73168;SDS011;61379;59.732;30.468;2024-03-22T08:32:28;17.00;;;12.55;;
73168;SDS011;61379;59.732;30.468;2024-03-22T08:34:55;19.08;;;12.02;;
73168;SDS011;61379;59.732;30.468;2024-03-22T08:37:21;20.30;;;12.48;;
73168;SDS011;61379;59.732;30.468;2024-03-22T08:39:48;17.75;;;11.68;;
73168;SDS011;61379;59.732;30.468;2024-03-22T08:42:15;12.48;;;10.20;;
73168;SDS011;61379;59.732;30.468;2024-03-22T08:44:42;17.13;;;12.80;;
73168;SDS011;61379;59.732;30.468;2024-03-22T08:47:08;14.05;;;11.73;;
73168;SDS011;61379;59.732;30.468;2024-03-22T08:49:35;18.00;;;13.00;;
73168;SDS011;61379;59.732;30.468;2024-03-22T08:52:02;17.80;;;12.75;;
73168;SDS011;61379;59.732;30.468;2024-03-22T08:54:28;15.70;;;12.25;;
73168;SDS011;61379;59.732;30.468;2024-03-22T08:56:54;11.63;;;10.23;;
73168;SDS011;61379;59.732;30.468;2024-03-22T08:59:22;17.80;;;12.80;;
73168;SDS011;61379;59.732;30.468;2024-03-22T09:01:49;17.98;;;11.88;;
73168;SDS011;61379;59.732;30.468;2024-03-22T09:04:17;14.95;;;11.80;;
73168;SDS011;61379;59.732;30.468;2024-03-22T09:06:43;18.92;;;12.30;;
73168;SDS011;61379;59.732;30.468;2024-03-22T09:09:10;18.45;;;12.43;;
73168;SDS011;61379;59.732;30.468;2024-03-22T09:11:36;15.63;;;11.57;;
73168;SDS011;61379;59.732;30.468;2024-03-22T09:14:03;14.77;;;11.15;;
73168;SDS011;61379;59.732;30.468;2024-03-22T09:16:30;14.70;;;11.75;;
73168;SDS011;61379;59.732;30.468;2024-03-22T09:18:57;13.82;;;9.27;;
73168;SDS011;61379;59.732;30.468;2024-03-22T09:21:23;18.73;;;11.70;;
73168;SDS011;61379;59.732;30.468;2024-03-22T09:23:50;14.38;;;11.65;;
73168;SDS011;61379;59.732;30.468;2024-03-22T09:26:16;14.93;;;11.88;;
73168;SDS011;61379;59.732;30.468;2024-03-22T09:28:45;15.07;;;12.43;;
73168;SDS011;61379;59.732;30.468;2024-03-22T09:31:11;14.20;;;11.80;;
73168;SDS011;61379;59.732;30.468;2024-03-22T09:33:39;11.88;;;10.68;;
73168;SDS011;61379;59.732;30.468;2024-03-22T09:36:05;14.60;;;10.80;;
73168;SDS011;61379;59.732;30.468;2024-03-22T09:38:32;12.65;;;10.55;;
73168;SDS011;61379;59.732;30.468;2024-03-22T09:40:58;12.00;;;9.88;;
73168;SDS011;61379;59.732;30.468;2024-03-22T09:43:25;14.05;;;11.75;;
73168;SDS011;61379;59.732;30.468;2024-03-22T09:45:52;11.85;;;10.75;;
73168;SDS011;61379;59.732;30.468;2024-03-22T09:48:20;9.85;;;9.02;;
73168;SDS011;61379;59.732;30.468;2024-03-22T09:50:48;10.85;;;9.52;;
73168;SDS011;61379;59.732;30.468;2024-03-22T09:53:16;11.55;;;10.18;;
73168;SDS011;61379;59.732;30.468;2024-03-22T09:55:43;11.15;;;10.18;;
73168;SDS011;61379;59.732;30.468;2024-03-22T09:58:11;11.75;;;10.52;;
73168;SDS011;61379;59.732;30.468;2024-03-22T10:00:36;12.88;;;10.65;;
73168;SDS011;61379;59.732;30.468;2024-03-22T10:03:04;10.10;;;7.85;;
73168;SDS011;61379;59.732;30.468;2024-03-22T10:05:29;10.18;;;9.18;;
73168;SDS011;61379;59.732;30.468;2024-03-22T10:07:58;11.77;;;10.63;;
73168;SDS011;61379;59.732;30.468;2024-03-22T10:10:24;12.52;;;10.77;;
73168;SDS011;61379;59.732;30.468;2024-03-22T10:12:50;13.80;;;11.55;;
73168;SDS011;61379;59.732;30.468;2024-03-22T10:15:18;11.65;;;10.52;;
73168;SDS011;61379;59.732;30.468;2024-03-22T10:17:45;13.35;;;9.85;;
73168;SDS011;61379;59.732;30.468;2024-03-22T10:20:12;13.30;;;10.95;;
73168;SDS011;61379;59.732;30.468;2024-03-22T10:22:41;10.30;;;9.38;;
73168;SDS011;61379;59.732;30.468;2024-03-22T10:25:08;14.18;;;10.80;;
73168;SDS011;61379;59.732;30.468;2024-03-22T10:27:37;14.18;;;10.20;;
73168;SDS011;61379;59.732;30.468;2024-03-22T10:30:04;11.40;;;9.80;;
73168;SDS011;61379;59.732;30.468;2024-03-22T10:32:32;12.90;;;11.60;;
73168;SDS011;61379;59.732;30.468;2024-03-22T10:34:58;12.00;;;9.85;;
73168;SDS011;61379;59.732;30.468;2024-03-22T10:37:25;11.40;;;10.18;;
73168;SDS011;61379;59.732;30.468;2024-03-22T10:39:51;11.55;;;10.32;;
73168;SDS011;61379;59.732;30.468;2024-03-22T10:42:20;11.95;;;10.60;;
73168;SDS011;61379;59.732;30.468;2024-03-22T10:44:46;12.82;;;10.23;;
73168;SDS011;61379;59.732;30.468;2024-03-22T10:47:12;11.65;;;10.23;;
73168;SDS011;61379;59.732;30.468;2024-03-22T10:49:40;12.10;;;10.80;;
73168;SDS011;61379;59.732;30.468;2024-03-22T10:52:07;10.75;;;9.65;;
73168;SDS011;61379;59.732;30.468;2024-03-22T10:54:40;12.57;;;9.80;;
73168;SDS011;61379;59.732;30.468;2024-03-22T10:57:11;13.00;;;11.55;;
73168;SDS011;61379;59.732;30.468;2024-03-22T10:59:40;12.32;;;11.02;;
73168;SDS011;61379;59.732;30.468;2024-03-22T11:02:10;16.70;;;10.60;;
73168;SDS011;61379;59.732;30.468;2024-03-22T11:04:36;14.40;;;10.98;;
73168;SDS011;61379;59.732;30.468;2024-03-22T11:07:03;14.50;;;11.35;;
73168;SDS011;61379;59.732;30.468;2024-03-22T11:09:29;12.10;;;10.05;;
73168;SDS011;61379;59.732;30.468;2024-03-22T11:11:56;15.82;;;11.48;;
73168;SDS011;61379;59.732;30.468;2024-03-22T11:14:22;12.45;;;10.95;;
73168;SDS011;61379;59.732;30.468;2024-03-22T11:16:51;12.75;;;11.50;;
73168;SDS011;61379;59.732;30.468;2024-03-22T11:19:18;11.05;;;10.13;;
73168;SDS011;61379;59.732;30.468;2024-03-22T11:21:45;11.02;;;9.93;;
73168;SDS011;61379;59.732;30.468;2024-03-22T11:24:11;15.57;;;12.70;;
73168;SDS011;61379;59.732;30.468;2024-03-22T11:26:38;10.77;;;9.82;;
73168;SDS011;61379;59.732;30.468;2024-03-22T11:29:04;11.27;;;10.15;;
73168;SDS011;61379;59.732;30.468;2024-03-22T11:31:31;11.45;;;10.45;;
73168;SDS011;61379;59.732;30.468;2024-03-22T11:33:59;10.77;;;9.75;;
73168;SDS011;61379;59.732;30.468;2024-03-22T11:36:26;15.93;;;11.40;;
73168;SDS011;61379;59.732;30.468;2024-03-22T11:38:52;11.07;;;10.07;;
73168;SDS011;61379;59.732;30.468;2024-03-22T11:41:21;14.75;;;10.88;;
73168;SDS011;61379;59.732;30.468;2024-03-22T11:43:49;10.27;;;9.40;;
73168;SDS011;61379;59.732;30.468;2024-03-22T11:46:17;11.45;;;10.25;;
73168;SDS011;61379;59.732;30.468;2024-03-22T11:48:43;9.27;;;8.43;;
73168;SDS011;61379;59.732;30.468;2024-03-22T11:51:11;11.23;;;10.30;;
73168;SDS011;61379;59.732;30.468;2024-03-22T11:53:37;11.68;;;10.35;;
73168;SDS011;61379;59.732;30.468;2024-03-22T11:56:04;11.48;;;10.15;;
73168;SDS011;61379;59.732;30.468;2024-03-22T11:58:30;11.65;;;10.60;;
73168;SDS011;61379;59.732;30.468;2024-03-22T12:00:57;13.32;;;10.82;;
73168;SDS011;61379;59.732;30.468;2024-03-22T12:03:22;11.20;;;10.20;;
73168;SDS011;61379;59.732;30.468;2024-03-22T12:05:49;10.68;;;9.77;;
73168;SDS011;61379;59.732;30.468;2024-03-22T12:08:17;9.68;;;8.75;;
73168;SDS011;61379;59.732;30.468;2024-03-22T12:10:44;10.77;;;9.85;;
73168;SDS011;61379;59.732;30.468;2024-03-22T12:13:10;10.13;;;9.32;;
73168;SDS011;61379;59.732;30.468;2024-03-22T12:15:37;8.07;;;7.38;;
73168;SDS011;61379;59.732;30.468;2024-03-22T12:18:03;10.88;;;9.73;;
73168;SDS011;61379;59.732;30.468;2024-03-22T12:20:29;10.52;;;9.57;;
73168;SDS011;61379;59.732;30.468;2024-03-22T12:22:55;10.60;;;9.55;;
73168;SDS011;61379;59.732;30.468;2024-03-22T12:25:23;10.65;;;9.63;;
73168;SDS011;61379;59.732;30.468;2024-03-22T12:27:50;9.73;;;9.02;;
73168;SDS011;61379;59.732;30.468;2024-03-22T12:30:16;10.45;;;9.65;;
73168;SDS011;61379;59.732;30.468;2024-03-22T12:32:42;9.40;;;8.70;;
73168;SDS011;61379;59.732;30.468;2024-03-22T12:35:09;9.35;;;8.43;;
73168;SDS011;61379;59.732;30.468;2024-03-22T12:37:35;7.90;;;7.32;;
73168;SDS011;61379;59.732;30.468;2024-03-22T12:40:02;8.25;;;7.53;;
73168;SDS011;61379;59.732;30.468;2024-03-22T12:42:31;8.40;;;7.70;;
73168;SDS011;61379;59.732;30.468;2024-03-22T12:44:58;7.97;;;7.28;;
73168;SDS011;61379;59.732;30.468;2024-03-22T12:47:24;8.52;;;7.20;;
73168;SDS011;61379;59.732;30.468;2024-03-22T12:49:51;8.57;;;7.80;;
73168;SDS011;61379;59.732;30.468;2024-03-22T12:52:16;8.68;;;7.93;;
73168;SDS011;61379;59.732;30.468;2024-03-22T12:54:43;8.85;;;8.15;;
73168;SDS011;61379;59.732;30.468;2024-03-22T12:57:09;8.48;;;7.68;;
73168;SDS011;61379;59.732;30.468;2024-03-22T12:59:37;8.30;;;7.70;;
73168;SDS011;61379;59.732;30.468;2024-03-22T13:02:03;7.53;;;6.82;;
73168;SDS011;61379;59.732;30.468;2024-03-22T13:04:31;8.00;;;7.40;;
73168;SDS011;61379;59.732;30.468;2024-03-22T13:06:58;8.45;;;7.85;;
73168;SDS011;61379;59.732;30.468;2024-03-22T13:09:23;7.03;;;6.43;;
73168;SDS011;61379;59.732;30.468;2024-03-22T13:11:50;7.93;;;7.13;;
73168;SDS011;61379;59.732;30.468;2024-03-22T13:14:16;7.63;;;7.03;;
73168;SDS011;61379;59.732;30.468;2024-03-22T13:16:45;8.07;;;7.38;;
73168;SDS011;61379;59.732;30.468;2024-03-22T13:19:11;8.15;;;7.50;;
73168;SDS011;61379;59.732;30.468;2024-03-22T13:21:40;9.35;;;8.45;;
73168;SDS011;61379;59.732;30.468;2024-03-22T13:24:06;8.93;;;8.23;;
73168;SDS011;61379;59.732;30.468;2024-03-22T13:26:33;7.10;;;6.50;;
73168;SDS011;61379;59.732;30.468;2024-03-22T13:28:59;8.35;;;7.65;;
73168;SDS011;61379;59.732;30.468;2024-03-22T13:31:26;8.73;;;7.93;;
73168;SDS011;61379;59.732;30.468;2024-03-22T13:33:53;9.43;;;8.48;;
73168;SDS011;61379;59.732;30.468;2024-03-22T13:36:19;8.85;;;8.13;;
73168;SDS011;61379;59.732;30.468;2024-03-22T13:38:45;8.80;;;8.20;;
73168;SDS011;61379;59.732;30.468;2024-03-22T13:41:12;9.85;;;9.05;;
73168;SDS011;61379;59.732;30.468;2024-03-22T13:43:38;9.15;;;8.35;;
73168;SDS011;61379;59.732;30.468;2024-03-22T13:46:05;9.50;;;8.70;;
73168;SDS011;61379;59.732;30.468;2024-03-22T13:48:31;8.27;;;7.47;;
73168;SDS011;61379;59.732;30.468;2024-03-22T13:50:59;7.63;;;7.03;;
73168;SDS011;61379;59.732;30.468;2024-03-22T13:53:26;8.88;;;8.07;;
73168;SDS011;61379;59.732;30.468;2024-03-22T13:55:53;9.00;;;8.25;;
73168;SDS011;61379;59.732;30.468;2024-03-22T13:58:20;10.10;;;9.20;;
73168;SDS011;61379;59.732;30.468;2024-03-22T14:00:46;10.05;;;9.23;;
73168;SDS011;61379;59.732;30.468;2024-03-22T14:03:12;10.88;;;9.88;;
73168;SDS011;61379;59.732;30.468;2024-03-22T14:05:39;10.45;;;9.48;;
73168;SDS011;61379;59.732;30.468;2024-03-22T14:08:07;9.48;;;8.57;;
73168;SDS011;61379;59.732;30.468;2024-03-22T14:10:33;9.50;;;8.70;;